Time;durP1;ratioP1;P1;durP2;ratioP2;P2;SDS_P1;SDS_P2;PMS_P1;PMS_P2;Temp;Humidity;BMP_temperature;BMP_pressure;BME280_temperature;BME280_humidity;BME280_pressure;Samples;Min_cycle;Max_cycle;Signal;HPM_P1;HPM_P2
2022/08/01 00:01:32;;;;;;;8.80;6.30;;;20.30;99.90;;;;;;5102688;28;20306;-87
2022/08/01 00:04:00;;;;;;;9.85;6.45;;;20.20;99.90;;;;;;5093828;28;20223;-87
2022/08/01 00:06:27;;;;;;;8.43;5.53;;;20.20;99.90;;;;;;5093830;28;20224;-86
2022/08/01 00:08:55;;;;;;;10.65;5.78;;;20.20;99.90;;;;;;5094753;28;20215;-88
2022/08/01 00:11:22;;;;;;;7.95;5.82;;;20.20;99.90;;;;;;5090843;28;20572;-87
2022/08/01 00:13:49;;;;;;;10.73;6.03;;;20.30;99.90;;;;;;5097595;28;20192;-87
2022/08/01 00:16:17;;;;;;;9.38;5.32;;;20.20;99.90;;;;;;5092588;28;20214;-88
2022/08/01 00:18:44;;;;;;;9.63;6.03;;;20.20;99.90;;;;;;5092401;28;20215;-87
2022/08/01 00:21:11;;;;;;;9.90;5.40;;;20.20;99.90;;;;;;5085346;28;20196;-87
2022/08/01 00:23:38;;;;;;;8.57;4.78;;;20.20;99.90;;;;;;5086352;28;20197;-86
2022/08/01 00:26:05;;;;;;;8.40;5.63;;;20.30;99.90;;;;;;5083492;28;20204;-87
2022/08/01 00:28:33;;;;;;;8.95;5.15;;;20.20;99.90;;;;;;5076575;28;20705;-86
2022/08/01 00:31:00;;;;;;;7.45;5.30;;;20.20;99.90;;;;;;5090881;28;20206;-87
2022/08/01 00:33:27;;;;;;;8.02;5.03;;;20.10;99.90;;;;;;5090707;28;20222;-86
2022/08/01 00:36:01;;;;;;;6.82;5.20;;;20.00;99.90;;;;;;5091103;28;20216;-88
2022/08/01 00:38:32;;;;;;;7.72;4.80;;;20.10;99.90;;;;;;5085789;28;20295;-88
2022/08/01 00:40:59;;;;;;;9.20;5.00;;;20.00;99.90;;;;;;5086455;28;20802;-87
2022/08/01 00:43:26;;;;;;;7.68;4.80;;;20.00;99.90;;;;;;5082640;28;20617;-87
2022/08/01 00:45:53;;;;;;;6.82;4.88;;;20.00;99.90;;;;;;5093933;28;20795;-87
2022/08/01 00:48:20;;;;;;;7.53;4.88;;;20.00;99.90;;;;;;5093353;28;20299;-87
2022/08/01 00:50:50;;;;;;;9.73;4.80;;;20.00;99.90;;;;;;5095209;28;20204;-88
2022/08/01 00:53:17;;;;;;;10.05;5.43;;;19.90;99.90;;;;;;5107681;28;20210;-86
2022/08/01 00:55:45;;;;;;;8.48;5.10;;;19.90;99.90;;;;;;5108030;28;20184;-85
2022/08/01 00:58:12;;;;;;;7.32;4.97;;;19.90;99.90;;;;;;5102710;28;20197;-86
2022/08/01 01:00:40;;;;;;;6.30;4.45;;;19.90;99.90;;;;;;5114664;28;20242;-88
2022/08/01 01:03:23;;;;;;;7.97;5.72;;;19.90;99.90;;;;;;5106919;28;20227;-87
2022/08/01 01:06:24;;;;;;;9.93;5.03;;;19.90;99.90;;;;;;5110976;28;20282;-88
2022/08/01 01:09:16;;;;;;;7.93;5.00;;;19.80;99.90;;;;;;5111900;28;20200;-87
2022/08/01 01:11:58;;;;;;;7.72;5.47;;;19.80;99.90;;;;;;5113388;28;20314;-87
2022/08/01 01:14:50;;;;;;;13.63;5.88;;;19.70;99.90;;;;;;5083594;28;20239;-88
2022/08/01 01:17:23;;;;;;;9.20;5.63;;;19.70;99.90;;;;;;5082109;28;20223;-87
2022/08/01 01:20:13;;;;;;;9.68;5.78;;;19.70;99.90;;;;;;5086832;28;20218;-90
2022/08/01 01:22:48;;;;;;;9.05;5.90;;;19.70;99.90;;;;;;5096960;28;20200;-88
2022/08/01 01:25:37;;;;;;;10.57;5.60;;;19.80;99.90;;;;;;5099974;28;20227;-88
2022/08/01 01:28:29;;;;;;;9.90;6.05;;;19.70;99.90;;;;;;5101802;28;20199;-88
2022/08/01 01:30:58;;;;;;;10.45;6.63;;;19.70;99.90;;;;;;5104480;28;20254;-87
2022/08/01 01:33:34;;;;;;;11.40;6.13;;;19.70;99.90;;;;;;5100647;28;20218;-87
2022/08/01 01:36:14;;;;;;;11.95;6.20;;;19.70;99.90;;;;;;5089498;28;20328;-88
2022/08/01 01:38:44;;;;;;;11.40;5.38;;;19.70;99.90;;;;;;5084550;28;20187;-87
2022/08/01 01:41:16;;;;;;;14.15;6.53;;;19.70;99.90;;;;;;5090473;28;20215;-88
2022/08/01 01:43:46;;;;;;;10.75;6.47;;;19.70;99.90;;;;;;5093043;28;20214;-87
2022/08/01 01:46:16;;;;;;;9.55;5.60;;;19.60;99.90;;;;;;5087438;28;20231;-88
2022/08/01 01:48:46;;;;;;;10.48;6.35;;;19.70;99.90;;;;;;5093294;28;20216;-87
2022/08/01 01:51:15;;;;;;;10.20;6.30;;;19.70;99.90;;;;;;5089179;28;20196;-88
2022/08/01 01:53:44;;;;;;;11.35;6.90;;;19.60;99.90;;;;;;5089522;28;20264;-88
2022/08/01 01:56:14;;;;;;;7.93;5.07;;;19.70;99.90;;;;;;5091926;28;20206;-86
2022/08/01 02:02:34;;;;;;;5.45;3.65;;;19.60;99.90;;;;;;4980460;28;20400;-88
2022/08/01 02:05:02;;;;;;;6.07;4.13;;;19.60;99.90;;;;;;5038173;28;20220;-87
2022/08/01 02:07:33;;;;;;;5.85;3.60;;;19.60;99.90;;;;;;5089799;28;20227;-86
2022/08/01 02:10:04;;;;;;;6.30;4.13;;;19.60;99.90;;;;;;5089945;28;20622;-88
2022/08/01 02:12:36;;;;;;;4.57;3.50;;;19.60;99.90;;;;;;5080903;28;20200;-86
2022/08/01 02:15:05;;;;;;;6.15;3.75;;;19.60;99.90;;;;;;5093388;28;20204;-89
2022/08/01 02:17:36;;;;;;;5.78;3.53;;;19.60;99.90;;;;;;5090537;28;20311;-87
2022/08/01 02:20:03;;;;;;;5.63;3.60;;;19.60;99.90;;;;;;5084891;28;20209;-87
2022/08/01 02:22:35;;;;;;;6.10;3.92;;;19.60;99.90;;;;;;5090644;28;20700;-88
2022/08/01 02:25:11;;;;;;;5.78;3.95;;;19.70;99.90;;;;;;5086575;28;20247;-87
2022/08/01 02:27:55;;;;;;;5.85;3.85;;;19.60;99.90;;;;;;5086799;28;20211;-88
2022/08/01 02:30:25;;;;;;;7.20;4.53;;;19.60;99.90;;;;;;5083297;28;20213;-87
2022/08/01 02:33:09;;;;;;;6.25;4.13;;;19.60;99.90;;;;;;5088122;28;20294;-91
2022/08/01 02:35:45;;;;;;;7.30;4.85;;;19.60;99.90;;;;;;5090269;28;20318;-88
2022/08/01 02:38:41;;;;;;;7.20;4.90;;;19.50;99.90;;;;;;5092491;28;20282;-87
2022/08/01 02:41:18;;;;;;;8.65;5.07;;;19.60;99.90;;;;;;5087180;28;20201;-87
2022/08/01 02:43:51;;;;;;;7.03;5.13;;;19.60;99.90;;;;;;5083300;28;20231;-88
2022/08/01 02:46:35;;;;;;;7.75;5.15;;;19.50;99.90;;;;;;5085564;28;20275;-88
2022/08/01 02:49:13;;;;;;;7.25;4.10;;;19.50;99.90;;;;;;5102650;28;20242;-89
2022/08/01 02:51:43;;;;;;;7.72;4.78;;;19.60;99.90;;;;;;5103679;28;20661;-87
2022/08/01 02:54:11;;;;;;;7.43;5.25;;;19.60;99.90;;;;;;5095295;28;20224;-88
2022/08/01 02:56:42;;;;;;;8.25;4.88;;;19.60;99.90;;;;;;5099142;28;20214;-88
2022/08/01 02:59:16;;;;;;;7.32;5.00;;;19.70;99.90;;;;;;5083841;28;20204;-89
2022/08/01 03:01:49;;;;;;;7.22;4.78;;;19.70;99.90;;;;;;5099785;28;20216;-91
2022/08/01 03:04:19;;;;;;;6.70;4.53;;;19.60;99.90;;;;;;5092111;28;20211;-87
2022/08/01 03:06:47;;;;;;;7.13;4.57;;;19.70;99.90;;;;;;5084592;28;20224;-87
2022/08/01 03:09:16;;;;;;;6.78;4.57;;;19.70;99.90;;;;;;5087390;28;20216;-88
2022/08/01 03:11:46;;;;;;;6.95;4.45;;;19.60;99.90;;;;;;5088960;28;20284;-87
2022/08/01 03:14:15;;;;;;;5.47;4.05;;;19.60;99.90;;;;;;5095428;28;20245;-87
2022/08/01 03:16:47;;;;;;;7.35;3.97;;;19.70;99.90;;;;;;5084897;28;20635;-86
2022/08/01 03:19:18;;;;;;;7.85;3.67;;;19.60;99.90;;;;;;5097532;28;20220;-88
2022/08/01 03:21:46;;;;;;;5.90;3.83;;;19.70;99.90;;;;;;5078417;28;20209;-86
2022/08/01 03:24:16;;;;;;;7.50;4.10;;;19.70;99.90;;;;;;5092570;28;20208;-87
2022/08/01 03:26:44;;;;;;;4.72;3.58;;;19.70;99.90;;;;;;5095524;28;20231;-87
2022/08/01 03:29:21;;;;;;;4.88;3.47;;;19.80;99.90;;;;;;5082927;28;20205;-88
2022/08/01 03:31:49;;;;;;;5.05;3.33;;;19.80;99.90;;;;;;5099002;27;20219;-87
2022/08/01 03:34:17;;;;;;;4.90;3.42;;;19.70;99.90;;;;;;5088824;28;20211;-86
2022/08/01 03:37:09;;;;;;;4.97;3.53;;;19.80;99.90;;;;;;5082773;28;20211;-89
2022/08/01 03:39:48;;;;;;;5.25;3.33;;;19.80;99.90;;;;;;5083230;28;20212;-88
2022/08/01 03:42:20;;;;;;;5.53;3.50;;;19.80;99.90;;;;;;5086916;28;20212;-87
2022/08/01 03:44:54;;;;;;;5.28;3.40;;;19.80;99.90;;;;;;5082034;28;20221;-88
2022/08/01 03:47:25;;;;;;;5.65;3.97;;;19.80;99.90;;;;;;5090622;28;20219;-87
2022/08/01 03:49:58;;;;;;;4.80;3.30;;;19.90;99.90;;;;;;5084805;28;20208;-87
2022/08/01 03:52:30;;;;;;;5.15;3.53;;;19.80;99.90;;;;;;5087348;28;20203;-87
2022/08/01 03:55:06;;;;;;;4.97;3.50;;;19.80;99.90;;;;;;5075862;28;20200;-88
2022/08/01 03:57:40;;;;;;;4.90;3.55;;;19.80;99.90;;;;;;5085186;28;20208;-88
2022/08/01 04:00:18;;;;;;;5.68;3.72;;;19.80;99.90;;;;;;5076510;28;20575;-88
2022/08/01 04:02:50;;;;;;;5.95;3.83;;;19.70;99.90;;;;;;5094437;27;20307;-88
2022/08/01 04:05:18;;;;;;;9.07;4.68;;;19.80;99.90;;;;;;5077028;28;20230;-87
2022/08/01 04:07:47;;;;;;;9.95;3.95;;;19.80;99.90;;;;;;5086177;28;20700;-86
2022/08/01 04:10:14;;;;;;;6.82;4.32;;;19.80;99.90;;;;;;5089801;28;20210;-87
2022/08/01 04:12:43;;;;;;;5.63;4.25;;;19.80;99.90;;;;;;5079737;28;20235;-86
2022/08/01 04:15:10;;;;;;;7.38;4.43;;;19.80;99.90;;;;;;5104448;28;20195;-87
2022/08/01 04:17:43;;;;;;;9.18;5.25;;;19.70;99.90;;;;;;5086149;28;20214;-86
2022/08/01 04:20:11;;;;;;;7.05;4.68;;;19.80;99.90;;;;;;5091342;28;20208;-86
2022/08/01 04:22:39;;;;;;;7.55;4.45;;;19.70;99.90;;;;;;5098757;28;20692;-87
2022/08/01 04:25:35;;;;;;;7.05;5.13;;;19.80;99.90;;;;;;5079028;28;20261;-87
2022/08/01 04:28:07;;;;;;;6.40;4.57;;;19.80;99.90;;;;;;5087526;28;20204;-88
2022/08/01 04:30:39;;;;;;;7.18;4.63;;;19.80;99.90;;;;;;5086000;28;20207;-88
2022/08/01 04:33:09;;;;;;;10.23;5.40;;;19.80;99.90;;;;;;5074813;28;20214;-88
2022/08/01 04:35:41;;;;;;;3.60;2.50;;;19.70;99.90;;;;;;5080153;28;20201;-90
2022/08/01 04:38:31;;;;;;;3.45;2.35;;;19.70;99.90;;;;;;5096597;28;20213;-92
2022/08/01 04:41:08;;;;;;;3.85;2.10;;;19.50;99.90;;;;;;5083436;28;20195;-93
2022/08/01 04:43:45;;;;;;;2.20;1.95;;;19.50;99.90;;;;;;5090348;28;20200;-91
2022/08/01 04:46:14;;;;;;;2.50;2.10;;;19.30;99.90;;;;;;5117145;28;20236;-85
2022/08/01 04:49:10;;;;;;;;;;;;;;;;;;;;;
2022/08/01 04:52:02;;;;;;;2.40;2.05;;;19.20;99.90;;;;;;5079418;28;20214;-88
2022/08/01 04:54:38;;;;;;;2.85;2.42;;;19.10;99.90;;;;;;5090100;28;20212;-87
2022/08/01 04:57:06;;;;;;;2.45;2.20;;;19.00;99.90;;;;;;5102086;28;20212;-88
2022/08/01 04:59:41;;;;;;;3.63;2.65;;;19.00;99.90;;;;;;5102435;28;20208;-87
2022/08/01 05:02:15;;;;;;;3.33;2.85;;;19.00;99.90;;;;;;5099168;28;20246;-87
2022/08/01 05:04:45;;;;;;;4.93;3.22;;;19.00;99.90;;;;;;5088431;28;20231;-88
2022/08/01 05:07:13;;;;;;;4.00;2.78;;;19.00;99.90;;;;;;5086645;28;20248;-87
2022/08/01 05:09:47;;;;;;;4.97;3.05;;;19.00;99.90;;;;;;5100022;28;20264;-95
2022/08/01 05:12:26;;;;;;;4.05;2.78;;;19.00;99.90;;;;;;5095420;28;20199;-94
2022/08/01 05:14:56;;;;;;;5.38;2.97;;;19.00;99.90;;;;;;5103785;28;20219;-93
2022/08/01 05:17:25;;;;;;;3.83;3.00;;;19.00;99.90;;;;;;5098400;28;20259;-91
2022/08/01 05:20:05;;;;;;;3.58;2.85;;;18.90;99.90;;;;;;5080089;28;20225;-92
2022/08/01 05:22:37;;;;;;;6.00;3.63;;;19.00;99.90;;;;;;5085652;28;20263;-89
2022/08/01 05:25:05;;;;;;;5.07;3.30;;;19.10;99.90;;;;;;5102843;28;20227;-92
2022/08/01 05:27:37;;;;;;;4.30;3.65;;;19.10;99.90;;;;;;5097748;28;20219;-91
2022/08/01 05:30:10;;;;;;;7.28;3.78;;;19.20;99.90;;;;;;5097889;28;20564;-90
2022/08/01 05:32:40;;;;;;;5.68;3.45;;;19.20;99.90;;;;;;5089796;28;20212;-88
2022/08/01 05:35:15;;;;;;;5.20;3.80;;;19.30;99.90;;;;;;5102267;28;20209;-89
2022/08/01 05:37:46;;;;;;;7.82;3.67;;;19.30;99.90;;;;;;5102708;28;20207;-88
2022/08/01 05:40:15;;;;;;;5.30;3.83;;;19.30;99.90;;;;;;5098283;28;20272;-90
2022/08/01 05:42:45;;;;;;;4.53;3.40;;;19.40;99.90;;;;;;5097838;28;20211;-89
2022/08/01 05:45:13;;;;;;;5.82;4.00;;;19.50;99.90;;;;;;5093104;28;20216;-88
2022/08/01 05:47:43;;;;;;;5.03;3.85;;;19.60;99.90;;;;;;5093440;28;20227;-88
2022/08/01 05:50:10;;;;;;;4.88;3.65;;;19.60;99.90;;;;;;5101971;28;20237;-93
2022/08/01 05:52:40;;;;;;;4.63;3.50;;;19.60;99.90;;;;;;5103714;28;20200;-93
2022/08/01 05:55:12;;;;;;;5.28;3.83;;;19.70;99.90;;;;;;5101807;28;20187;-93
2022/08/01 05:57:49;;;;;;;4.50;3.75;;;19.70;99.90;;;;;;5095832;28;20313;-92
2022/08/01 06:00:29;;;;;;;5.63;3.70;;;19.70;99.90;;;;;;5080486;28;20250;-93
2022/08/01 06:03:03;;;;;;;7.13;4.10;;;19.80;99.90;;;;;;5098799;28;20215;-92
2022/08/01 06:05:40;;;;;;;4.25;3.85;;;19.80;99.90;;;;;;5099148;28;20231;-95
2022/08/01 06:08:11;;;;;;;3.95;3.55;;;19.90;99.90;;;;;;5099144;28;20218;-93
2022/08/01 06:11:06;;;;;;;6.28;3.70;;;20.00;99.90;;;;;;5101662;28;20284;-93
2022/08/01 06:13:43;;;;;;;6.65;3.58;;;20.20;99.90;;;;;;5098915;28;20223;-92
2022/08/01 06:16:19;;;;;;;4.82;3.42;;;20.10;99.90;;;;;;5086693;28;20208;-92
2022/08/01 06:18:47;;;;;;;5.10;3.20;;;20.20;99.90;;;;;;5097681;28;20219;-93
2022/08/01 06:21:27;;;;;;;6.00;3.42;;;20.30;99.90;;;;;;5097069;28;20220;-92
2022/08/01 06:24:17;;;;;;;5.13;3.42;;;20.20;99.90;;;;;;5098446;28;20256;-92
2022/08/01 06:26:55;;;;;;;4.57;3.08;;;20.20;99.90;;;;;;5097631;28;20219;-91
2022/08/01 06:29:24;;;;;;;7.93;4.50;;;20.20;99.90;;;;;;5101110;28;20665;-91
2022/08/01 06:31:59;;;;;;;6.70;3.65;;;20.20;99.90;;;;;;5112733;28;20200;-92
2022/08/01 06:34:26;;;;;;;4.25;3.40;;;20.30;99.90;;;;;;5085659;28;20205;-91
2022/08/01 06:36:56;;;;;;;6.72;3.10;;;20.30;99.90;;;;;;5088011;28;20204;-87
2022/08/01 06:39:39;;;;;;;5.22;3.00;;;20.40;99.90;;;;;;5090713;28;20672;-88
2022/08/01 06:42:12;;;;;;;5.90;3.33;;;20.50;99.90;;;;;;5097908;28;20242;-89
2022/08/01 06:44:41;;;;;;;5.00;2.72;;;20.50;99.90;;;;;;5093748;28;20214;-88
2022/08/01 06:47:15;;;;;;;6.38;2.88;;;20.50;99.90;;;;;;5105998;28;20292;-90
2022/08/01 06:49:47;;;;;;;4.00;3.45;;;20.50;99.90;;;;;;5105537;28;20655;-88
2022/08/01 06:52:14;;;;;;;4.47;3.25;;;20.60;99.90;;;;;;5095596;28;20250;-88
2022/08/01 06:54:49;;;;;;;4.90;3.00;;;20.80;99.90;;;;;;5101781;28;20203;-89
2022/08/01 06:57:19;;;;;;;5.22;2.50;;;20.90;99.90;;;;;;5108839;28;20207;-89
2022/08/01 06:59:47;;;;;;;4.70;3.00;;;20.90;99.90;;;;;;5100280;28;20200;-88
2022/08/01 07:02:21;;;;;;;4.32;2.50;;;20.90;99.90;;;;;;5100479;28;20226;-89
2022/08/01 07:04:50;;;;;;;3.20;2.60;;;21.00;99.90;;;;;;5107228;28;20289;-88
2022/08/01 07:07:31;;;;;;;4.63;2.50;;;21.10;99.90;;;;;;5104870;28;20341;-89
2022/08/01 07:10:09;;;;;;;4.88;2.60;;;21.30;99.90;;;;;;5104027;28;20208;-89
2022/08/01 07:12:41;;;;;;;5.03;2.70;;;21.50;99.90;;;;;;5104557;28;20251;-89
2022/08/01 07:15:11;;;;;;;5.72;2.67;;;21.70;99.90;;;;;;5113072;28;20301;-88
2022/08/01 07:17:48;;;;;;;3.75;2.22;;;21.70;99.90;;;;;;5113872;28;20222;-89
2022/08/01 07:20:15;;;;;;;4.68;2.72;;;21.60;99.90;;;;;;5098324;28;20200;-89
2022/08/01 07:22:53;;;;;;;3.15;2.20;;;21.50;99.90;;;;;;5110033;28;20248;-90
2022/08/01 07:25:25;;;;;;;3.45;2.25;;;21.40;99.90;;;;;;5092900;28;20609;-89
2022/08/01 07:27:53;;;;;;;8.60;2.63;;;21.30;99.90;;;;;;5100768;28;20318;-88
2022/08/01 07:30:23;;;;;;;7.13;2.78;;;21.20;99.90;;;;;;5094033;28;20212;-88
2022/08/01 07:33:15;;;;;;;4.07;3.30;;;21.10;99.90;;;;;;5092731;28;20310;-87
2022/08/01 07:36:24;;;;;;;5.20;3.35;;;21.10;99.90;;;;;;5092588;28;20207;-89
2022/08/01 07:38:55;;;;;;;4.22;2.70;;;20.90;99.90;;;;;;5094498;28;20204;-89
2022/08/01 07:41:35;;;;;;;5.10;3.05;;;20.90;99.90;;;;;;5102392;28;20227;-88
2022/08/01 07:44:30;;;;;;;4.60;3.25;;;21.10;99.90;;;;;;5102387;28;20203;-90
2022/08/01 07:46:59;;;;;;;4.85;2.75;;;21.10;99.90;;;;;;5101576;28;20625;-89
2022/08/01 07:49:26;;;;;;;5.20;3.17;;;21.30;99.90;;;;;;5086443;28;20208;-90
2022/08/01 07:51:56;;;;;;;10.38;4.00;;;21.40;99.90;;;;;;5093495;28;20207;-93
2022/08/01 07:54:35;;;;;;;6.40;3.47;;;21.50;99.90;;;;;;5104526;28;20199;-91
2022/08/01 07:57:20;;;;;;;9.20;3.53;;;21.50;99.90;;;;;;5108544;28;20203;-91
2022/08/01 08:00:00;;;;;;;15.07;3.83;;;21.50;99.90;;;;;;5104043;28;20180;-93
2022/08/01 08:02:43;;;;;;;7.90;3.17;;;21.60;99.90;;;;;;5107840;28;20224;-93
2022/08/01 08:05:28;;;;;;;10.40;3.10;;;21.80;99.90;;;;;;5105724;28;20212;-91
2022/08/01 08:08:18;;;;;;;11.98;3.63;;;22.10;99.90;;;;;;5116938;28;20191;-94
2022/08/01 08:11:00;;;;;;;10.85;3.53;;;22.10;99.90;;;;;;5112186;28;20175;-93
2022/08/01 08:13:40;;;;;;;10.85;3.15;;;22.00;99.90;;;;;;5115013;28;20225;-93
2022/08/01 08:16:20;;;;;;;12.02;3.95;;;21.90;99.90;;;;;;5099306;28;20192;-93
2022/08/01 08:18:59;;;;;;;7.93;2.95;;;21.80;99.90;;;;;;5117173;28;20274;-90
2022/08/01 08:21:31;;;;;;;7.68;3.13;;;21.70;99.90;;;;;;5113809;28;20204;-91
2022/08/01 08:27:04;;;;;;;13.00;3.10;;;22.00;99.90;;;;;;5103956;28;20215;-92
2022/08/01 08:29:43;;;;;;;8.70;3.22;;;22.10;99.90;;;;;;5096991;28;20219;-93
2022/08/01 08:32:11;;;;;;;12.82;3.63;;;22.20;99.90;;;;;;5105157;28;20212;-92
2022/08/01 08:34:45;;;;;;;6.55;3.38;;;22.30;99.90;;;;;;5113576;28;20591;-91
2022/08/01 08:37:40;;;;;;;9.73;3.38;;;22.20;99.90;;;;;;5104434;28;20184;-91
2022/08/01 08:40:15;;;;;;;11.80;3.42;;;22.10;99.90;;;;;;5115213;22;20231;-75
2022/08/01 08:42:43;;;;;;;10.18;3.80;;;22.10;99.90;;;;;;5104642;27;20210;-75
2022/08/01 08:45:10;;;;;;;6.55;2.90;;;22.10;99.90;;;;;;5106506;27;20248;-76
2022/08/01 08:47:39;;;;;;;9.10;3.60;;;22.10;99.90;;;;;;5103373;27;20261;-76
2022/08/01 08:50:06;;;;;;;9.50;3.38;;;22.20;99.90;;;;;;5106201;27;20255;-77
2022/08/01 08:52:37;;;;;;;12.85;3.83;;;22.20;99.90;;;;;;5107515;27;20272;-76
2022/08/01 08:55:05;;;;;;;9.85;3.25;;;22.30;99.90;;;;;;5102912;27;20226;-75
2022/08/01 08:57:32;;;;;;;11.50;3.30;;;22.40;99.90;;;;;;5107403;27;20203;-75
2022/08/01 09:00:00;;;;;;;9.57;3.10;;;22.50;99.90;;;;;;5102571;27;20240;-74
2022/08/01 09:02:27;;;;;;;12.80;3.72;;;22.50;99.90;;;;;;5103719;27;20533;-74
2022/08/01 09:04:54;;;;;;;9.40;3.55;;;22.50;99.90;;;;;;5103812;28;20657;-74
2022/08/01 09:07:22;;;;;;;10.55;3.88;;;22.60;99.90;;;;;;5103339;28;20235;-74
2022/08/01 09:09:49;;;;;;;9.32;4.07;;;22.70;99.90;;;;;;5098934;27;20196;-76
2022/08/01 09:12:18;;;;;;;8.88;3.30;;;22.80;99.90;;;;;;5098304;28;20222;-77
2022/08/01 09:14:46;;;;;;;12.82;3.10;;;22.80;99.90;;;;;;5089964;28;21102;-75
2022/08/01 09:17:13;;;;;;;8.77;3.00;;;22.80;99.90;;;;;;5093028;28;20683;-75
2022/08/01 09:19:48;;;;;;;8.05;3.00;;;22.70;99.90;;;;;;5097616;28;20199;-74
2022/08/01 09:22:22;;;;;;;11.95;3.60;;;22.70;99.90;;;;;;5093046;28;20226;-75
2022/08/01 09:25:08;;;;;;;13.35;3.63;;;22.80;99.90;;;;;;5096715;28;20382;-74
2022/08/01 09:27:37;;;;;;;10.23;3.60;;;23.00;99.90;;;;;;5096608;28;20277;-75
2022/08/01 09:30:14;;;;;;;9.63;3.42;;;23.20;99.90;;;;;;5097794;28;20586;-74
2022/08/01 09:32:54;;;;;;;9.38;2.50;;;23.50;99.90;;;;;;5092931;28;20218;-75
2022/08/01 09:35:31;;;;;;;11.00;3.20;;;23.70;99.90;;;;;;5096352;28;20869;-75
2022/08/01 09:38:21;;;;;;;6.53;2.70;;;23.80;99.90;;;;;;5094074;28;21094;-75
2022/08/01 09:40:49;;;;;;;5.95;2.42;;;23.90;99.90;;;;;;5097668;28;20231;-75
2022/08/01 09:43:18;;;;;;;7.10;2.15;;;24.10;99.90;;;;;;5094255;28;20211;-75
2022/08/01 09:45:45;;;;;;;6.50;2.30;;;24.10;99.90;;;;;;5098946;28;20207;-75
2022/08/01 09:48:16;;;;;;;8.77;2.45;;;24.10;99.90;;;;;;5093955;28;20245;-76
2022/08/01 09:50:45;;;;;;;6.63;2.30;;;24.10;99.90;;;;;;5094887;28;20596;-75
2022/08/01 09:53:13;;;;;;;11.30;2.25;;;24.20;99.90;;;;;;5092619;28;20239;-73
2022/08/01 09:56:11;;;;;;;7.32;2.10;;;24.20;99.90;;;;;;5095963;28;20199;-74
2022/08/01 09:58:59;;;;;;;4.00;1.90;;;24.30;99.90;;;;;;5100166;28;20591;-77
2022/08/01 10:01:49;;;;;;;5.20;1.80;;;24.30;99.90;;;;;;5094972;28;20204;-75
2022/08/01 10:04:20;;;;;;;3.30;1.50;;;24.30;99.90;;;;;;5101599;28;20195;-76
2022/08/01 10:06:52;;;;;;;4.65;1.90;;;24.30;99.90;;;;;;5094285;28;20612;-74
2022/08/01 10:09:33;;;;;;;6.32;1.80;;;24.40;99.90;;;;;;5097666;28;20223;-76
2022/08/01 10:12:07;;;;;;;6.88;1.70;;;24.40;99.90;;;;;;5092386;28;20214;-75
2022/08/01 10:14:37;;;;;;;7.15;1.85;;;24.70;99.90;;;;;;5090853;28;20526;-75
2022/08/01 10:17:13;;;;;;;5.47;1.60;;;25.10;99.90;;;;;;5093992;28;20223;-74
2022/08/01 10:19:46;;;;;;;6.55;2.03;;;25.50;99.90;;;;;;5099136;28;20290;-75
2022/08/01 10:22:17;;;;;;;8.02;1.95;;;25.70;99.90;;;;;;5092533;28;20200;-75
2022/08/01 10:24:46;;;;;;;4.93;1.58;;;25.80;99.90;;;;;;5093539;28;20489;-75
2022/08/01 10:27:16;;;;;;;7.40;1.55;;;25.80;99.90;;;;;;5094224;28;20219;-75
2022/08/01 10:30:04;;;;;;;7.95;1.90;;;25.80;99.90;;;;;;5102185;28;20208;-76
2022/08/01 10:32:47;;;;;;;4.80;1.98;;;25.90;99.90;;;;;;5101575;28;20647;-75
2022/08/01 10:35:17;;;;;;;7.53;2.10;;;25.80;99.90;;;;;;5098570;28;20230;-75
2022/08/01 10:38:05;;;;;;;5.57;2.22;;;25.70;99.90;;;;;;5095987;28;20298;-75
2022/08/01 10:40:37;;;;;;;5.47;2.50;;;25.60;99.90;;;;;;5096917;28;20253;-75
2022/08/01 10:43:06;;;;;;;7.45;1.70;;;25.40;99.90;;;;;;5096566;28;20191;-74
2022/08/01 10:45:33;;;;;;;6.05;1.60;;;25.40;99.90;;;;;;5095498;28;20539;-75
2022/08/01 10:48:23;;;;;;;4.80;1.50;;;25.40;99.90;;;;;;5102061;28;20231;-75
2022/08/01 10:50:54;;;;;;;5.13;1.52;;;25.50;99.90;;;;;;5098019;28;20469;-75
2022/08/01 10:53:24;;;;;;;3.75;1.63;;;25.60;99.90;;;;;;5093121;28;20251;-75
2022/08/01 10:56:09;;;;;;;6.53;1.80;;;25.60;99.90;;;;;;5100467;28;20236;-75
2022/08/01 10:58:43;;;;;;;4.90;1.60;;;25.60;99.90;;;;;;5096592;28;20199;-75
2022/08/01 11:01:24;;;;;;;9.95;2.00;;;25.70;99.90;;;;;;5106485;28;20716;-75
2022/08/01 11:04:01;;;;;;;6.45;1.98;;;25.60;99.90;;;;;;5104468;28;20246;-76
2022/08/01 11:06:32;;;;;;;7.75;2.20;;;25.50;99.90;;;;;;5102860;28;20238;-75
2022/08/01 11:09:03;;;;;;;7.35;2.00;;;25.40;99.90;;;;;;5102844;28;21141;-75
2022/08/01 11:11:32;;;;;;;10.40;2.20;;;25.40;99.90;;;;;;5093172;28;20207;-75
2022/08/01 11:14:09;;;;;;;8.27;2.60;;;25.30;99.90;;;;;;5104210;28;20195;-77
2022/08/01 11:16:38;;;;;;;6.97;2.00;;;25.40;99.90;;;;;;5106878;28;20195;-76
2022/08/01 11:19:08;;;;;;;6.45;2.17;;;25.40;99.90;;;;;;5106901;28;20214;-77
2022/08/01 11:21:53;;;;;;;9.75;2.58;;;25.50;99.90;;;;;;5105235;27;20294;-76
2022/08/01 11:24:45;;;;;;;9.30;2.33;;;25.60;99.90;;;;;;5107404;27;20287;-75
2022/08/01 11:27:17;;;;;;;7.07;1.92;;;25.80;99.90;;;;;;5104372;27;20231;-77
2022/08/01 11:30:08;;;;;;;8.00;1.85;;;25.90;99.90;;;;;;5108873;27;20202;-74
2022/08/01 11:32:50;;;;;;;8.48;2.25;;;26.10;99.90;;;;;;5107067;27;20330;-76
2022/08/01 11:35:58;;;;;;;10.27;2.95;;;26.10;99.90;;;;;;5106929;27;20199;-77
2022/08/01 11:38:27;;;;;;;5.53;1.90;;;25.90;99.90;;;;;;5105547;27;20642;-75
2022/08/01 11:41:11;;;;;;;6.90;2.20;;;25.90;99.90;;;;;;5103571;27;20257;-75
2022/08/01 11:44:04;;;;;;;7.75;2.22;;;25.90;99.90;;;;;;5108507;27;20206;-79
2022/08/01 11:47:11;;;;;;;5.97;1.90;;;25.90;99.90;;;;;;5106284;27;20351;-77
2022/08/01 11:49:45;;;;;;;6.78;2.17;;;25.90;99.90;;;;;;5106564;27;20701;-77
2022/08/01 11:52:29;;;;;;;7.45;2.17;;;25.80;99.90;;;;;;5105450;27;20194;-78
2022/08/01 11:55:08;;;;;;;6.40;1.92;;;25.90;99.90;;;;;;5102301;27;20588;-76
2022/08/01 11:57:37;;;;;;;4.07;2.38;;;25.80;99.90;;;;;;5104866;27;20195;-76
2022/08/01 12:00:16;;;;;;;6.68;2.10;;;25.70;99.90;;;;;;5105677;28;20233;-74
2022/08/01 12:02:45;;;;;;;5.57;1.95;;;25.70;99.90;;;;;;5106771;27;20299;-76
2022/08/01 12:05:17;;;;;;;6.57;1.95;;;25.70;99.90;;;;;;5104841;27;20393;-77
2022/08/01 12:07:48;;;;;;;6.45;1.70;;;25.80;99.90;;;;;;5105571;27;20226;-76
2022/08/01 12:10:18;;;;;;;6.60;1.65;;;25.90;99.90;;;;;;5105821;27;20290;-76
2022/08/01 12:12:48;;;;;;;6.90;2.08;;;25.90;99.90;;;;;;5104731;27;21247;-74
2022/08/01 12:15:15;;;;;;;12.13;2.35;;;25.90;99.90;;;;;;5106208;27;20298;-76
2022/08/01 12:17:48;;;;;;;7.60;2.25;;;25.70;99.90;;;;;;5103182;27;20270;-76
2022/08/01 12:20:29;;;;;;;5.70;2.13;;;25.70;99.90;;;;;;5104952;27;20198;-74
2022/08/01 12:23:05;;;;;;;10.45;2.65;;;25.60;99.90;;;;;;5103198;27;20701;-74
2022/08/01 12:25:32;;;;;;;6.40;2.42;;;25.70;99.90;;;;;;5106227;27;20656;-77
2022/08/01 12:28:05;;;;;;;8.68;2.22;;;25.60;99.90;;;;;;5102712;27;20231;-76
2022/08/01 12:30:37;;;;;;;8.05;2.20;;;25.70;99.90;;;;;;5104578;27;20280;-77
2022/08/01 12:33:06;;;;;;;7.40;1.98;;;25.90;99.90;;;;;;5103676;27;20691;-75
2022/08/01 12:35:34;;;;;;;8.18;2.72;;;26.00;99.90;;;;;;5102745;27;20260;-77
2022/08/01 12:38:07;;;;;;;6.03;2.33;;;26.30;99.90;;;;;;5105772;27;20211;-77
2022/08/01 12:40:39;;;;;;;4.70;1.70;;;26.30;99.90;;;;;;5104214;28;20650;-76
2022/08/01 12:43:17;;;;;;;5.43;1.85;;;26.30;99.90;;;;;;5104679;27;20542;-74
2022/08/01 12:45:55;;;;;;;7.18;1.95;;;26.20;99.90;;;;;;5102015;27;20213;-74
2022/08/01 12:48:24;;;;;;;9.13;2.13;;;26.20;99.90;;;;;;5104098;27;20698;-76
2022/08/01 12:50:52;;;;;;;6.55;2.00;;;26.20;99.90;;;;;;5103843;27;20206;-77
2022/08/01 12:53:20;;;;;;;5.20;1.75;;;26.30;99.90;;;;;;5104862;27;20203;-75
2022/08/01 12:55:53;;;;;;;4.32;1.45;;;26.20;99.90;;;;;;5098600;27;20223;-76
2022/08/01 12:58:33;;;;;;;5.38;1.70;;;26.30;99.90;;;;;;5098013;28;20643;-73
2022/08/01 13:01:10;;;;;;;4.50;1.70;;;26.40;99.90;;;;;;5104516;27;20284;-75
2022/08/01 13:03:38;;;;;;;3.78;1.77;;;26.50;99.90;;;;;;5099251;27;20226;-75
2022/08/01 13:06:27;;;;;;;3.67;1.30;;;26.50;99.90;;;;;;5106120;27;20203;-74
2022/08/01 13:08:54;;;;;;;6.68;1.98;;;26.60;99.90;;;;;;5105513;27;20223;-75
2022/08/01 13:11:21;;;;;;;2.72;1.33;;;26.60;99.90;;;;;;5101440;27;20256;-75
2022/08/01 13:13:52;;;;;;;4.00;1.50;;;26.70;99.90;;;;;;5103910;28;20658;-74
2022/08/01 13:16:21;;;;;;;3.70;1.50;;;26.80;99.90;;;;;;5101740;27;20196;-73
2022/08/01 13:19:04;;;;;;;3.70;1.70;;;27.00;99.90;;;;;;5103090;27;20558;-75
2022/08/01 13:21:31;;;;;;;6.50;1.73;;;27.10;99.90;;;;;;5101690;27;20203;-75
2022/08/01 13:24:26;;;;;;;3.50;1.55;;;27.20;99.80;;;;;;5101303;28;20730;-74
2022/08/01 13:26:57;;;;;;;5.30;1.50;;;27.10;99.40;;;;;;5097094;28;20203;-74
2022/08/01 13:29:40;;;;;;;4.63;1.30;;;27.10;99.10;;;;;;5091317;28;20208;-75